Time;durP1;ratioP1;P1;durP2;ratioP2;P2;SDS_P1;SDS_P2;PMS_P1;PMS_P2;Temp;Humidity;BMP_temperature;BMP_pressure;BME280_temperature;BME280_humidity;BME280_pressure;Samples;Min_cycle;Max_cycle;Signal;HPM_P1;HPM_P2
2021/12/09 00:00:54;;;;;;;12.40;11.13;;;3.80;99.90;;;;;;4932453;29;20190;-75
2021/12/09 00:03:21;;;;;;;11.83;10.60;;;3.90;99.90;;;;;;4932398;29;20183;-75
2021/12/09 00:05:47;;;;;;;18.33;16.93;;;3.80;99.90;;;;;;4948693;29;20180;-75
2021/12/09 00:08:13;;;;;;;11.27;10.13;;;3.80;99.90;;;;;;4933769;29;20202;-75
2021/12/09 00:10:39;;;;;;;20.70;19.40;;;3.70;99.90;;;;;;4933445;29;20241;-75
2021/12/09 00:13:06;;;;;;;19.03;17.63;;;3.70;99.90;;;;;;4933364;29;20227;-74
2021/12/09 00:15:32;;;;;;;11.33;10.63;;;3.70;99.90;;;;;;4951525;28;20191;-74
2021/12/09 00:17:58;;;;;;;13.87;12.87;;;3.60;99.90;;;;;;4937643;29;20219;-74
2021/12/09 00:20:24;;;;;;;11.40;10.70;;;3.60;99.90;;;;;;4937310;29;20174;-75
2021/12/09 00:22:50;;;;;;;12.73;11.87;;;3.50;99.90;;;;;;4952035;28;20609;-74
2021/12/09 00:25:16;;;;;;;10.13;9.13;;;3.60;99.90;;;;;;4937321;29;20200;-75
2021/12/09 00:27:43;;;;;;;10.70;9.40;;;3.50;99.90;;;;;;4937252;29;20261;-75
2021/12/09 00:30:11;;;;;;;8.97;8.33;;;3.60;99.90;;;;;;4936953;29;20189;-74
2021/12/09 00:32:38;;;;;;;9.83;9.00;;;3.60;99.90;;;;;;4935684;29;20353;-75
2021/12/09 00:35:05;;;;;;;9.77;8.70;;;3.60;99.90;;;;;;4937159;29;20202;-74
2021/12/09 00:37:39;;;;;;;11.23;10.20;;;3.60;99.90;;;;;;4937045;29;20218;-75
2021/12/09 00:40:07;;;;;;;14.00;13.00;;;3.60;99.90;;;;;;4936772;29;20181;-75
2021/12/09 00:42:33;;;;;;;13.60;12.70;;;3.60;99.90;;;;;;4936723;29;20180;-75
2021/12/09 00:44:59;;;;;;;15.00;13.80;;;3.60;99.90;;;;;;4937210;29;20288;-74
2021/12/09 00:47:25;;;;;;;14.63;13.63;;;3.60;99.90;;;;;;4951526;28;20306;-74
2021/12/09 00:49:55;;;;;;;15.13;13.93;;;3.60;99.90;;;;;;4935406;29;20221;-74
2021/12/09 00:52:24;;;;;;;11.10;10.00;;;3.60;99.90;;;;;;4936782;29;20189;-75
2021/12/09 00:54:51;;;;;;;11.87;10.77;;;3.60;99.90;;;;;;4936586;29;20191;-75
2021/12/09 00:57:18;;;;;;;14.90;10.27;;;3.70;99.90;;;;;;4936630;29;20703;-74
2021/12/09 00:59:44;;;;;;;11.83;10.70;;;3.70;99.90;;;;;;4936432;29;20674;-74
2021/12/09 01:02:10;;;;;;;11.50;10.57;;;3.70;99.90;;;;;;4936494;29;20269;-74
2021/12/09 01:04:37;;;;;;;12.47;11.47;;;3.60;99.90;;;;;;4936303;29;20188;-74
2021/12/09 01:07:04;;;;;;;11.07;10.13;;;3.70;99.90;;;;;;4936649;29;20203;-75
2021/12/09 01:09:30;;;;;;;12.27;11.07;;;3.70;99.90;;;;;;4935570;29;20195;-74
2021/12/09 01:11:56;;;;;;;11.17;10.27;;;3.70;99.90;;;;;;4936362;29;20183;-75
2021/12/09 01:14:21;;;;;;;10.93;10.03;;;3.70;99.90;;;;;;4950793;29;20203;-74
2021/12/09 01:16:47;;;;;;;12.37;9.43;;;3.60;99.90;;;;;;4934975;29;20214;-74
2021/12/09 01:19:13;;;;;;;9.60;8.93;;;3.60;99.90;;;;;;4935135;29;20183;-74
2021/12/09 01:21:39;;;;;;;9.60;8.80;;;3.60;99.90;;;;;;4935943;29;20659;-74
2021/12/09 01:24:05;;;;;;;10.90;9.77;;;3.60;99.90;;;;;;4936452;29;20544;-75
2021/12/09 01:26:31;;;;;;;9.83;8.93;;;3.60;99.90;;;;;;4934885;29;20672;-74
2021/12/09 01:29:01;;;;;;;10.03;9.10;;;3.60;99.90;;;;;;4936017;29;20187;-75
2021/12/09 01:31:33;;;;;;;10.37;9.37;;;3.60;99.90;;;;;;4945531;29;20186;-74
2021/12/09 01:34:02;;;;;;;11.73;10.67;;;3.60;99.90;;;;;;4956894;29;20189;-75
2021/12/09 01:36:30;;;;;;;12.93;11.57;;;3.60;99.90;;;;;;4939125;29;20230;-75
2021/12/09 01:38:56;;;;;;;13.77;12.43;;;3.60;99.90;;;;;;4936224;29;20179;-75
2021/12/09 01:41:21;;;;;;;16.30;15.03;;;3.60;99.90;;;;;;4935588;29;20183;-75
2021/12/09 01:43:49;;;;;;;16.70;15.40;;;3.60;99.90;;;;;;4950396;29;20183;-75
2021/12/09 01:46:17;;;;;;;16.70;15.03;;;3.60;99.90;;;;;;4934134;29;20811;-74
2021/12/09 01:48:44;;;;;;;15.97;14.63;;;3.60;99.90;;;;;;4935824;29;20621;-75
2021/12/09 01:51:11;;;;;;;18.87;17.37;;;3.60;99.90;;;;;;4935393;29;20653;-75
2021/12/09 01:53:37;;;;;;;18.07;16.23;;;3.60;99.90;;;;;;4950385;29;20176;-75
2021/12/09 01:56:07;;;;;;;16.10;14.60;;;3.70;99.90;;;;;;4935707;29;20560;-74
2021/12/09 01:58:34;;;;;;;14.13;12.70;;;3.70;99.90;;;;;;4935628;29;20283;-75
2021/12/09 02:01:00;;;;;;;13.83;12.63;;;3.70;99.90;;;;;;4935178;29;20194;-75
2021/12/09 02:03:26;;;;;;;9.47;8.50;;;3.70;99.90;;;;;;4935285;29;20178;-75
2021/12/09 02:05:53;;;;;;;8.07;7.57;;;3.70;99.90;;;;;;4935506;29;20193;-75
2021/12/09 02:08:19;;;;;;;7.17;6.73;;;3.70;99.90;;;;;;4935476;29;20675;-75
2021/12/09 02:10:47;;;;;;;7.57;6.70;;;3.60;99.90;;;;;;4934936;29;20178;-75
2021/12/09 02:13:13;;;;;;;7.37;6.77;;;3.60;99.90;;;;;;4935047;29;20178;-75
2021/12/09 02:15:40;;;;;;;16.40;15.50;;;3.60;99.90;;;;;;4933924;29;20184;-75
2021/12/09 02:18:11;;;;;;;11.67;11.07;;;3.60;99.90;;;;;;4935080;29;20218;-74
2021/12/09 02:20:40;;;;;;;20.90;19.77;;;3.60;99.90;;;;;;4934931;29;20183;-74
2021/12/09 02:23:10;;;;;;;8.23;7.83;;;3.50;99.90;;;;;;4933617;29;20183;-74
2021/12/09 02:25:38;;;;;;;8.43;7.97;;;3.50;99.90;;;;;;4935068;29;20178;-75
2021/12/09 02:28:05;;;;;;;12.73;12.03;;;3.40;99.90;;;;;;4933755;29;20203;-75
2021/12/09 02:30:31;;;;;;;9.87;9.27;;;3.40;99.90;;;;;;4934574;29;20274;-75
2021/12/09 02:32:57;;;;;;;10.17;9.40;;;3.40;99.90;;;;;;4934580;29;20189;-75
2021/12/09 02:35:23;;;;;;;7.20;6.60;;;3.40;99.90;;;;;;4933630;29;20187;-75
2021/12/09 02:37:49;;;;;;;7.37;6.97;;;3.40;99.90;;;;;;4934498;29;20234;-75
2021/12/09 02:40:16;;;;;;;7.73;7.10;;;3.40;99.90;;;;;;4933183;29;20180;-76
2021/12/09 02:42:42;;;;;;;8.30;7.80;;;3.40;99.90;;;;;;4949482;29;20232;-75
2021/12/09 02:45:10;;;;;;;8.77;8.07;;;3.40;99.90;;;;;;4934291;29;20253;-76
2021/12/09 02:47:37;;;;;;;7.67;7.17;;;3.40;99.90;;;;;;4934301;29;20227;-76
2021/12/09 02:50:04;;;;;;;7.43;6.80;;;3.40;99.90;;;;;;4945532;28;20214;-75
2021/12/09 02:52:30;;;;;;;6.47;5.97;;;3.40;99.90;;;;;;4934261;29;20182;-75
2021/12/09 02:54:58;;;;;;;7.13;5.97;;;3.40;99.90;;;;;;4933947;29;20183;-75
2021/12/09 02:57:24;;;;;;;6.63;6.13;;;3.40;99.90;;;;;;4933025;29;20254;-75
2021/12/09 02:59:50;;;;;;;9.47;8.67;;;3.40;99.90;;;;;;4933963;29;20183;-76
2021/12/09 03:02:18;;;;;;;9.67;8.87;;;3.40;99.90;;;;;;4934918;29;20184;-75
2021/12/09 03:04:48;;;;;;;8.30;7.80;;;3.40;99.90;;;;;;4932889;29;20192;-75
2021/12/09 03:07:18;;;;;;;7.80;7.20;;;3.40;99.90;;;;;;4934144;29;20204;-75
2021/12/09 03:09:54;;;;;;;7.70;6.90;;;3.40;99.90;;;;;;4933734;29;20187;-75
2021/12/09 03:12:26;;;;;;;7.77;7.27;;;3.40;99.90;;;;;;4932816;29;20225;-75
2021/12/09 03:14:53;;;;;;;8.73;8.00;;;3.50;99.90;;;;;;4933963;29;20207;-75
2021/12/09 03:17:20;;;;;;;10.07;9.30;;;3.50;99.90;;;;;;4933961;29;20304;-75
2021/12/09 03:19:47;;;;;;;10.90;10.13;;;3.50;99.90;;;;;;4933740;29;20183;-75
2021/12/09 03:22:13;;;;;;;10.50;9.70;;;3.50;99.90;;;;;;4933962;29;20611;-75
2021/12/09 03:24:39;;;;;;;10.43;9.50;;;3.50;99.90;;;;;;4933773;29;20243;-74
2021/12/09 03:27:06;;;;;;;11.17;9.97;;;3.50;99.90;;;;;;4932702;29;20206;-75
2021/12/09 03:29:32;;;;;;;10.87;10.00;;;3.50;99.90;;;;;;4932544;29;20194;-75
2021/12/09 03:32:02;;;;;;;12.30;11.30;;;3.60;99.90;;;;;;4933563;29;20275;-75
2021/12/09 03:34:30;;;;;;;11.27;10.13;;;3.60;99.90;;;;;;4933401;29;20290;-75
2021/12/09 03:36:59;;;;;;;11.50;10.70;;;3.60;99.90;;;;;;4932558;29;20214;-74
2021/12/09 03:39:29;;;;;;;11.17;7.97;;;3.60;99.90;;;;;;4933741;29;20269;-75
2021/12/09 03:41:55;;;;;;;9.43;8.60;;;3.60;99.90;;;;;;4933549;29;20238;-75
2021/12/09 03:44:23;;;;;;;11.13;9.43;;;3.70;99.90;;;;;;4932980;29;20563;-75
2021/12/09 03:46:52;;;;;;;16.57;9.83;;;3.60;99.90;;;;;;4950106;23;20378;-78
2021/12/09 03:49:18;;;;;;;11.33;10.33;;;3.70;99.90;;;;;;4917267;29;20591;-77
2021/12/09 03:51:44;;;;;;;11.30;10.20;;;3.70;99.90;;;;;;4917874;29;20580;-77
2021/12/09 03:54:12;;;;;;;14.73;9.50;;;3.70;99.90;;;;;;4918003;29;20185;-77
2021/12/09 03:56:39;;;;;;;11.53;10.43;;;3.70;99.90;;;;;;4919091;29;20250;-75
2021/12/09 03:59:06;;;;;;;11.63;10.43;;;3.70;99.90;;;;;;4936102;29;20184;-77
2021/12/09 04:01:33;;;;;;;14.20;11.00;;;3.80;99.90;;;;;;4931446;29;20326;-78
2021/12/09 04:03:59;;;;;;;16.27;12.67;;;3.80;99.90;;;;;;4928559;29;20180;-78
2021/12/09 04:06:25;;;;;;;17.03;15.30;;;3.80;99.90;;;;;;4930509;29;20184;-78
2021/12/09 04:08:51;;;;;;;15.57;13.97;;;3.80;99.90;;;;;;4922458;29;20616;-79
2021/12/09 04:11:18;;;;;;;17.80;14.73;;;3.80;99.90;;;;;;4921344;29;20222;-78
2021/12/09 04:13:44;;;;;;;15.50;10.90;;;3.80;99.90;;;;;;4921366;29;20250;-79
2021/12/09 04:16:10;;;;;;;12.53;11.23;;;3.70;99.90;;;;;;4919830;29;20239;-79
2021/12/09 04:18:40;;;;;;;21.43;12.63;;;3.80;99.90;;;;;;4934964;29;20242;-78
2021/12/09 04:21:07;;;;;;;20.67;12.90;;;3.70;99.90;;;;;;4919726;29;20184;-78
2021/12/09 04:23:33;;;;;;;16.87;10.37;;;3.70;99.90;;;;;;4919564;29;20182;-78
2021/12/09 04:25:59;;;;;;;15.33;11.57;;;3.80;99.90;;;;;;4917974;29;20818;-78
2021/12/09 04:28:27;;;;;;;16.63;11.27;;;3.80;99.90;;;;;;4918322;29;20224;-77
2021/12/09 04:30:52;;;;;;;22.17;11.37;;;3.80;99.90;;;;;;4922215;29;20650;-78
2021/12/09 04:33:18;;;;;;;12.93;11.63;;;3.70;99.90;;;;;;4940182;29;20219;-77
2021/12/09 04:35:44;;;;;;;16.23;11.40;;;3.70;99.90;;;;;;4937777;29;20209;-77
2021/12/09 04:38:11;;;;;;;16.97;10.80;;;3.70;99.90;;;;;;4934049;29;20220;-76
2021/12/09 04:40:36;;;;;;;18.53;11.20;;;3.80;99.90;;;;;;4932928;29;20191;-77
2021/12/09 04:43:02;;;;;;;13.13;10.40;;;3.80;99.90;;;;;;4919935;29;20186;-77
2021/12/09 04:45:30;;;;;;;12.87;9.87;;;3.80;99.90;;;;;;4918623;29;20688;-76
2021/12/09 04:47:56;;;;;;;19.90;11.53;;;3.70;99.90;;;;;;4918738;29;20701;-77
2021/12/09 04:50:22;;;;;;;16.40;12.70;;;3.80;99.90;;;;;;4917817;29;20684;-77
2021/12/09 04:52:49;;;;;;;14.00;12.00;;;3.80;99.90;;;;;;4919345;29;20203;-77
2021/12/09 04:55:15;;;;;;;13.83;11.47;;;3.80;99.90;;;;;;4933947;29;20263;-77
2021/12/09 04:57:43;;;;;;;14.90;13.30;;;3.80;99.90;;;;;;4917984;29;20301;-77
2021/12/09 05:00:13;;;;;;;14.57;12.17;;;3.90;99.90;;;;;;4926846;29;20251;-77
2021/12/09 05:03:01;;;;;;;16.63;11.10;;;3.80;99.90;;;;;;4921069;29;20179;-78
2021/12/09 05:05:26;;;;;;;12.97;11.67;;;3.80;99.90;;;;;;4919787;29;20188;-78
2021/12/09 05:07:51;;;;;;;12.93;11.83;;;3.80;99.90;;;;;;4929163;29;20207;-78
2021/12/09 05:10:17;;;;;;;15.00;11.80;;;3.80;99.90;;;;;;4929647;29;20234;-77
2021/12/09 05:12:43;;;;;;;16.23;13.83;;;3.80;99.90;;;;;;4932447;29;20201;-78
2021/12/09 05:15:10;;;;;;;14.77;13.60;;;3.70;99.90;;;;;;4931372;29;20247;-78
2021/12/09 05:17:36;;;;;;;15.23;13.93;;;3.70;99.90;;;;;;4919350;29;20218;-78
2021/12/09 05:20:04;;;;;;;16.20;14.50;;;3.70;99.90;;;;;;4918735;29;20187;-78
2021/12/09 05:22:31;;;;;;;15.43;14.00;;;3.70;99.90;;;;;;4918414;29;20737;-78
2021/12/09 05:24:57;;;;;;;14.70;13.20;;;3.70;99.90;;;;;;4918676;29;20215;-79
2021/12/09 05:27:23;;;;;;;15.03;13.53;;;3.70;99.90;;;;;;4914561;29;20699;-78
2021/12/09 05:30:03;;;;;;;14.27;13.00;;;3.70;99.90;;;;;;4920926;29;20285;-77
2021/12/09 05:32:30;;;;;;;15.20;11.73;;;3.70;99.90;;;;;;4899260;29;20216;-77
2021/12/09 05:34:57;;;;;;;15.63;10.27;;;3.70;99.90;;;;;;4898359;29;20192;-77
2021/12/09 05:37:25;;;;;;;17.77;11.07;;;3.70;99.90;;;;;;4908613;29;20211;-77
2021/12/09 05:39:52;;;;;;;14.17;10.53;;;3.60;99.90;;;;;;4925397;29;20188;-77
2021/12/09 05:42:20;;;;;;;12.23;9.70;;;3.60;99.90;;;;;;4919211;29;20575;-77
2021/12/09 05:44:47;;;;;;;17.80;10.00;;;3.70;99.90;;;;;;4918266;29;20546;-77
2021/12/09 05:47:14;;;;;;;17.40;10.50;;;3.70;99.90;;;;;;4917860;29;20230;-76
2021/12/09 05:49:43;;;;;;;14.07;9.57;;;3.70;99.90;;;;;;4917575;29;20184;-76
2021/12/09 05:52:09;;;;;;;16.90;10.00;;;3.70;99.90;;;;;;4915290;29;20183;-76
2021/12/09 05:54:36;;;;;;;14.07;10.20;;;3.60;99.90;;;;;;4916880;29;20187;-76
2021/12/09 05:57:03;;;;;;;12.97;10.20;;;3.60;99.90;;;;;;4916346;29;20222;-79
2021/12/09 05:59:28;;;;;;;12.40;10.27;;;3.60;99.90;;;;;;4917287;29;20735;-77
2021/12/09 06:01:55;;;;;;;13.80;10.87;;;3.60;99.90;;;;;;4931494;29;20184;-77
2021/12/09 06:04:24;;;;;;;15.07;12.47;;;3.60;99.90;;;;;;4915438;29;20180;-76
2021/12/09 06:06:51;;;;;;;14.70;12.90;;;3.70;99.90;;;;;;4920491;29;20212;-77
2021/12/09 06:09:18;;;;;;;14.60;13.30;;;3.60;99.90;;;;;;4917316;29;20217;-77
2021/12/09 06:11:46;;;;;;;14.60;13.07;;;3.70;99.90;;;;;;4926888;29;20189;-76
2021/12/09 06:14:13;;;;;;;15.23;13.87;;;3.70;99.90;;;;;;4934906;29;20198;-76
2021/12/09 06:16:39;;;;;;;14.07;12.77;;;3.60;99.90;;;;;;4934004;29;20263;-77
2021/12/09 06:19:05;;;;;;;15.70;14.40;;;3.70;99.90;;;;;;4934320;29;20587;-77
2021/12/09 06:21:31;;;;;;;14.80;12.83;;;3.70;99.90;;;;;;4914310;29;20275;-77
2021/12/09 06:24:02;;;;;;;15.10;13.13;;;3.70;99.90;;;;;;4916496;29;20193;-77
2021/12/09 06:26:30;;;;;;;13.33;12.03;;;3.70;99.90;;;;;;4930710;29;20934;-77
2021/12/09 06:28:56;;;;;;;13.50;12.00;;;3.70;99.90;;;;;;4915127;29;20189;-77
2021/12/09 06:31:22;;;;;;;11.27;10.20;;;3.60;99.90;;;;;;4915653;29;20275;-77
2021/12/09 06:33:48;;;;;;;16.07;9.70;;;3.60;99.90;;;;;;4914488;29;20184;-77
2021/12/09 06:36:14;;;;;;;13.73;12.20;;;3.60;99.90;;;;;;4915176;29;20223;-76
2021/12/09 06:38:40;;;;;;;9.87;8.90;;;3.50;99.90;;;;;;4914785;29;20664;-77
2021/12/09 06:41:08;;;;;;;15.83;9.80;;;3.50;99.90;;;;;;4911799;29;20304;-77
2021/12/09 06:43:37;;;;;;;8.87;7.73;;;3.50;99.90;;;;;;4915834;29;20187;-66
2021/12/09 06:46:06;;;;;;;8.60;7.97;;;3.60;99.90;;;;;;4915983;29;20193;-68
2021/12/09 06:48:33;;;;;;;9.03;8.13;;;3.50;99.90;;;;;;4929270;29;20266;-68
2021/12/09 06:51:01;;;;;;;12.20;9.27;;;3.50;99.90;;;;;;4912791;29;20195;-67
2021/12/09 06:53:29;;;;;;;9.30;8.43;;;3.50;99.90;;;;;;4928240;29;20225;-71
2021/12/09 06:55:55;;;;;;;8.77;8.10;;;3.50;99.90;;;;;;4913945;29;20648;-70
2021/12/09 06:58:22;;;;;;;9.07;8.27;;;3.40;99.90;;;;;;4913874;29;20222;-70
2021/12/09 07:00:48;;;;;;;12.30;8.30;;;3.30;99.90;;;;;;4913233;29;20194;-71
2021/12/09 07:03:20;;;;;;;12.63;8.90;;;3.30;99.90;;;;;;4913529;29;20242;-70
2021/12/09 07:05:47;;;;;;;12.57;11.17;;;3.30;99.90;;;;;;4913666;29;20188;-68
2021/12/09 07:08:13;;;;;;;12.43;11.53;;;3.30;99.90;;;;;;4913758;29;20209;-70
2021/12/09 07:10:39;;;;;;;8.40;7.60;;;3.20;99.90;;;;;;4915018;29;20666;-70
2021/12/09 07:13:05;;;;;;;13.20;9.03;;;3.10;99.90;;;;;;4922557;29;20231;-70
2021/12/09 07:15:32;;;;;;;13.37;10.00;;;3.10;99.90;;;;;;4917232;29;20210;-70
2021/12/09 07:17:59;;;;;;;8.97;8.20;;;3.10;99.90;;;;;;4915076;29;20644;-71
2021/12/09 07:20:27;;;;;;;11.77;7.90;;;3.00;99.90;;;;;;4914948;29;20194;-69
2021/12/09 07:22:53;;;;;;;9.27;8.47;;;3.00;99.90;;;;;;4913890;29;20181;-69
2021/12/09 07:25:21;;;;;;;9.43;8.57;;;3.00;99.90;;;;;;4914678;29;20193;-70
2021/12/09 07:27:47;;;;;;;14.87;10.90;;;3.00;99.90;;;;;;4915212;29;20204;-70
2021/12/09 07:30:15;;;;;;;13.20;11.53;;;3.00;99.90;;;;;;4929652;29;20211;-69
2021/12/09 07:32:41;;;;;;;12.80;11.20;;;3.00;99.90;;;;;;4915674;29;20267;-73
2021/12/09 07:35:08;;;;;;;13.03;11.73;;;3.00;99.90;;;;;;4914570;29;20282;-71
2021/12/09 07:37:37;;;;;;;11.73;10.90;;;3.00;99.90;;;;;;4913989;29;20215;-70
2021/12/09 07:40:06;;;;;;;11.03;9.00;;;3.10;99.90;;;;;;4915255;29;20234;-69
2021/12/09 07:42:32;;;;;;;9.27;7.63;;;3.00;99.90;;;;;;4914659;29;20566;-70
2021/12/09 07:44:58;;;;;;;9.23;8.33;;;3.00;99.90;;;;;;4915640;29;20193;-69
2021/12/09 07:47:24;;;;;;;8.63;7.73;;;3.10;99.90;;;;;;4913882;29;20308;-70
2021/12/09 07:49:49;;;;;;;8.30;7.47;;;3.00;99.90;;;;;;4914844;29;20185;-69
2021/12/09 07:52:15;;;;;;;8.57;7.87;;;3.10;99.90;;;;;;4915005;29;20196;-70
2021/12/09 07:54:41;;;;;;;12.80;9.73;;;3.20;99.90;;;;;;4915765;29;20186;-70
2021/12/09 07:57:07;;;;;;;21.63;16.67;;;3.20;99.90;;;;;;4923898;29;20226;-70
2021/12/09 07:59:33;;;;;;;14.03;11.07;;;3.20;99.90;;;;;;4913597;29;20198;-69
2021/12/09 08:01:59;;;;;;;11.10;10.30;;;3.30;99.90;;;;;;4913340;29;20199;-70
2021/12/09 08:04:25;;;;;;;8.33;7.67;;;3.30;99.90;;;;;;4914556;29;20192;-70
2021/12/09 08:06:51;;;;;;;8.43;7.57;;;3.30;99.90;;;;;;4914682;29;20213;-70
2021/12/09 08:09:17;;;;;;;11.53;7.97;;;3.40;99.90;;;;;;4914937;29;20564;-70
2021/12/09 08:11:44;;;;;;;15.53;8.87;;;3.40;99.90;;;;;;4914433;29;20215;-69
2021/12/09 08:14:11;;;;;;;10.37;9.27;;;3.50;99.90;;;;;;4915075;29;20195;-71
2021/12/09 08:16:39;;;;;;;11.37;9.30;;;3.50;99.90;;;;;;4914291;29;20704;-71
2021/12/09 08:19:05;;;;;;;9.57;8.70;;;3.50;99.90;;;;;;4913613;29;20188;-70
2021/12/09 08:21:35;;;;;;;10.83;9.33;;;3.60;99.90;;;;;;4914397;29;20188;-71
2021/12/09 08:24:01;;;;;;;12.30;11.10;;;3.60;99.90;;;;;;4929212;29;20189;-70
2021/12/09 08:26:27;;;;;;;13.10;12.10;;;3.70;99.90;;;;;;4914515;29;20541;-69
2021/12/09 08:28:53;;;;;;;13.63;12.33;;;3.70;99.90;;;;;;4915008;29;20243;-70
2021/12/09 08:31:19;;;;;;;15.10;13.60;;;3.80;99.90;;;;;;4914202;29;20185;-69
2021/12/09 08:33:45;;;;;;;16.33;14.73;;;3.80;99.90;;;;;;4914985;29;20255;-70
2021/12/09 08:36:10;;;;;;;14.33;13.10;;;3.80;99.90;;;;;;4932395;29;20185;-70
2021/12/09 08:38:36;;;;;;;13.73;12.53;;;3.80;99.90;;;;;;4916853;29;20224;-70
2021/12/09 08:41:02;;;;;;;11.60;10.40;;;3.90;99.90;;;;;;4916584;29;20191;-71
2021/12/09 08:43:29;;;;;;;11.13;10.03;;;3.90;99.90;;;;;;4916880;29;20213;-69
2021/12/09 08:45:56;;;;;;;10.37;9.40;;;3.90;99.90;;;;;;4917535;29;20183;-71
2021/12/09 08:48:23;;;;;;;11.37;10.20;;;3.90;99.90;;;;;;4932407;29;20244;-70
2021/12/09 08:50:50;;;;;;;12.13;9.70;;;3.90;99.90;;;;;;4917465;29;20673;-71
2021/12/09 08:53:19;;;;;;;12.93;10.13;;;4.00;99.90;;;;;;4918022;29;20192;-70
2021/12/09 08:55:45;;;;;;;11.73;10.73;;;4.10;99.90;;;;;;4921609;29;20667;-70
2021/12/09 08:58:13;;;;;;;15.23;13.63;;;4.10;99.90;;;;;;4899561;29;20230;-69
2021/12/09 09:00:40;;;;;;;18.87;17.27;;;4.20;99.90;;;;;;4916401;29;20295;-70
2021/12/09 09:03:06;;;;;;;20.87;19.17;;;4.30;99.90;;;;;;4916409;29;20180;-70
2021/12/09 09:05:33;;;;;;;22.40;20.50;;;4.40;99.90;;;;;;4919308;29;20189;-70
2021/12/09 09:08:00;;;;;;;20.70;18.73;;;4.40;99.90;;;;;;4920134;29;20208;-69
2021/12/09 09:10:29;;;;;;;18.20;16.60;;;4.40;99.90;;;;;;4919326;29;20553;-70
2021/12/09 09:12:55;;;;;;;19.97;15.27;;;4.50;99.90;;;;;;4918917;29;20282;-69
2021/12/09 09:15:23;;;;;;;15.90;14.60;;;4.60;99.90;;;;;;4917602;29;20189;-68
2021/12/09 09:17:49;;;;;;;19.67;17.93;;;4.70;99.90;;;;;;4917266;29;20224;-68
2021/12/09 09:20:17;;;;;;;20.03;18.20;;;4.80;99.90;;;;;;4917325;29;20240;-70
2021/12/09 09:22:44;;;;;;;18.03;16.40;;;4.90;99.90;;;;;;4917404;29;20936;-68
2021/12/09 09:25:17;;;;;;;15.17;13.87;;;4.90;99.90;;;;;;4916625;29;20207;-67
2021/12/09 09:27:44;;;;;;;14.97;10.83;;;5.00;99.90;;;;;;4917020;29;20253;-68
2021/12/09 09:30:14;;;;;;;11.77;10.67;;;5.10;99.90;;;;;;4916672;29;20718;-69
2021/12/09 09:32:41;;;;;;;14.13;11.70;;;5.20;99.90;;;;;;4916024;29;20189;-67
2021/12/09 09:35:09;;;;;;;10.67;9.67;;;5.30;99.90;;;;;;4916842;29;20277;-67
2021/12/09 09:37:35;;;;;;;12.77;9.60;;;5.20;99.90;;;;;;4915721;29;20254;-68
2021/12/09 09:40:05;;;;;;;14.37;8.60;;;5.30;99.90;;;;;;4916495;29;20218;-69
2021/12/09 09:43:25;;;;;;;9.33;8.50;;;5.50;99.90;;;;;;4915904;29;20236;-68
2021/12/09 09:45:22;;;;;;;9.40;8.50;;;5.50;99.90;;;;;;4918783;29;20564;-69
2021/12/09 09:47:49;;;;;;;10.17;9.23;;;5.60;99.90;;;;;;4915806;29;20221;-70
2021/12/09 09:50:15;;;;;;;9.53;8.67;;;5.70;99.90;;;;;;4916232;29;20214;-69
2021/12/09 09:52:40;;;;;;;10.97;9.87;;;5.80;99.90;;;;;;4915489;29;20189;-69
2021/12/09 09:55:09;;;;;;;13.17;11.97;;;5.90;99.90;;;;;;4916525;29;20191;-70
2021/12/09 09:57:35;;;;;;;16.50;15.07;;;6.10;99.90;;;;;;4916260;29;20635;-69
2021/12/09 10:00:03;;;;;;;29.37;27.17;;;6.30;99.90;;;;;;4916097;29;20198;-69
2021/12/09 10:02:29;;;;;;;20.17;16.83;;;6.50;99.90;;;;;;4916298;29;20190;-69
2021/12/09 10:05:01;;;;;;;12.90;11.90;;;6.50;99.90;;;;;;4916332;29;20195;-69
2021/12/09 10:07:29;;;;;;;12.33;11.33;;;6.70;99.90;;;;;;4915253;29;20599;-70
2021/12/09 10:09:55;;;;;;;14.93;13.83;;;6.80;99.90;;;;;;4916249;29;20186;-70
2021/12/09 10:12:21;;;;;;;19.27;17.97;;;6.90;99.90;;;;;;4916601;29;20187;-69
2021/12/09 10:14:52;;;;;;;23.50;20.27;;;6.90;99.90;;;;;;4930953;29;20218;-69
2021/12/09 10:17:26;;;;;;;21.10;19.20;;;6.90;99.90;;;;;;4930798;29;20380;-69
2021/12/09 10:19:55;;;;;;;24.93;22.43;;;7.00;99.90;;;;;;4915795;29;20183;-69
2021/12/09 10:22:39;;;;;;;20.63;18.67;;;7.10;99.90;;;;;;4915803;29;20183;-69
2021/12/09 10:25:20;;;;;;;16.83;15.17;;;7.00;99.90;;;;;;4900031;29;20281;-69
2021/12/09 10:27:59;;;;;;;13.80;12.43;;;7.00;99.90;;;;;;4916006;29;20258;-69
2021/12/09 10:30:26;;;;;;;10.77;9.77;;;6.80;99.90;;;;;;4914641;29;20195;-70
2021/12/09 10:33:02;;;;;;;12.37;9.43;;;6.80;99.90;;;;;;4915907;29;20206;-69
2021/12/09 10:35:28;;;;;;;11.50;10.53;;;6.70;99.90;;;;;;4917494;29;20209;-69
2021/12/09 10:37:54;;;;;;;12.17;11.20;;;6.60;99.90;;;;;;4916352;29;20203;-69
2021/12/09 10:40:26;;;;;;;11.87;10.93;;;6.60;99.90;;;;;;4916340;29;20546;-70
2021/12/09 10:42:58;;;;;;;13.10;11.67;;;6.70;99.90;;;;;;4916798;29;20237;-69
2021/12/09 10:45:33;;;;;;;12.73;11.43;;;6.70;99.90;;;;;;4927968;29;20188;-69
2021/12/09 10:48:26;;;;;;;12.73;11.63;;;6.60;99.90;;;;;;4909647;29;20233;-69
2021/12/09 10:55:51;;;;;;;10.83;9.83;;;6.30;99.90;;;;;;4915313;29;20194;-69
2021/12/09 10:58:20;;;;;;;10.23;8.70;;;6.20;99.90;;;;;;4914141;29;20218;-69
2021/12/09 11:00:54;;;;;;;8.87;8.17;;;6.00;99.90;;;;;;4915148;29;20186;-72
2021/12/09 11:03:35;;;;;;;15.07;8.57;;;5.80;99.90;;;;;;4914298;29;20185;-71
2021/12/09 11:06:07;;;;;;;10.50;9.80;;;5.70;99.90;;;;;;4920247;29;20190;-73
2021/12/09 11:08:34;;;;;;;9.70;8.87;;;5.70;99.90;;;;;;4915312;29;20216;-73
2021/12/09 11:11:05;;;;;;;12.30;11.30;;;5.70;99.90;;;;;;4915157;29;20743;-72
2021/12/09 11:13:54;;;;;;;13.07;11.97;;;5.70;99.90;;;;;;4915310;29;20316;-73
2021/12/09 11:16:32;;;;;;;15.27;14.17;;;5.80;99.90;;;;;;4915201;29;20222;-72
2021/12/09 11:19:25;;;;;;;14.70;13.57;;;5.80;99.90;;;;;;4930418;29;20220;-72
2021/12/09 11:21:59;;;;;;;15.37;14.37;;;5.90;99.90;;;;;;4913375;29;20194;-72
2021/12/09 11:24:31;;;;;;;12.07;11.37;;;6.00;99.90;;;;;;4915513;29;20657;-72
2021/12/09 11:27:01;;;;;;;14.57;13.13;;;6.20;99.90;;;;;;4915135;29;20206;-72
2021/12/09 11:29:34;;;;;;;11.60;10.80;;;6.50;99.90;;;;;;4915080;29;20197;-72
2021/12/09 11:32:07;;;;;;;11.20;9.17;;;6.50;99.90;;;;;;4914941;29;20261;-72
2021/12/09 11:34:37;;;;;;;9.80;9.00;;;6.50;99.90;;;;;;4915488;29;20217;-73
2021/12/09 11:37:22;;;;;;;10.73;9.70;;;6.40;99.90;;;;;;4913904;29;20703;-73
2021/12/09 11:39:48;;;;;;;10.50;9.53;;;6.40;99.90;;;;;;4915048;29;20776;-72
2021/12/09 11:42:25;;;;;;;10.97;9.97;;;6.40;99.90;;;;;;4913861;29;20193;-72
2021/12/09 11:44:51;;;;;;;10.23;9.30;;;6.40;99.90;;;;;;4915125;29;20186;-72
2021/12/09 11:47:17;;;;;;;10.07;9.17;;;6.60;99.90;;;;;;4914530;29;20218;-72
2021/12/09 11:49:44;;;;;;;8.60;7.80;;;6.80;99.90;;;;;;4913650;29;20219;-72
2021/12/09 11:52:15;;;;;;;11.93;10.73;;;6.90;99.90;;;;;;4914730;29;20186;-72
2021/12/09 11:54:49;;;;;;;10.93;9.93;;;7.00;99.90;;;;;;4914922;29;20183;-72
2021/12/09 11:57:33;;;;;;;9.83;9.07;;;7.10;99.90;;;;;;4927970;29;20336;-72
2021/12/09 12:11:54;;;;;;;9.40;8.50;;;7.30;99.90;;;;;;4918328;29;20660;-73
2021/12/09 12:14:44;;;;;;;8.47;7.87;;;7.00;99.90;;;;;;4918939;29;20806;-72
2021/12/09 12:17:18;;;;;;;10.67;8.60;;;6.70;99.90;;;;;;4933300;29;20237;-72
2021/12/09 12:23:08;;;;;;;9.30;8.00;;;6.20;99.90;;;;;;4918408;29;20190;-71
2021/12/09 12:37:47;;;;;;;7.80;6.93;;;6.30;99.90;;;;;;4917833;29;20230;-73
2021/12/09 12:40:16;;;;;;;8.90;7.97;;;6.40;99.90;;;;;;4917707;29;20240;-72
2021/12/09 12:43:00;;;;;;;7.80;7.20;;;6.50;99.90;;;;;;4917888;29;20239;-73
2021/12/09 12:51:22;;;;;;;11.03;9.80;;;6.60;99.90;;;;;;4917527;29;20202;-72
2021/12/09 12:53:59;;;;;;;14.27;12.07;;;6.60;99.90;;;;;;4917673;29;20191;-72
2021/12/09 12:56:30;;;;;;;13.73;12.27;;;6.50;99.90;;;;;;4916156;29;20189;-73
2021/12/09 12:59:06;;;;;;;21.30;13.37;;;6.50;99.90;;;;;;4917513;29;20194;-72
2021/12/09 13:01:34;;;;;;;19.27;12.57;;;6.40;99.90;;;;;;4915747;29;20587;-73
2021/12/09 13:04:14;;;;;;;13.57;12.27;;;6.20;99.90;;;;;;4917619;29;20225;-74
2021/12/09 13:06:51;;;;;;;13.47;12.07;;;6.10;99.90;;;;;;4916163;29;20265;-73
2021/12/09 13:09:52;;;;;;;14.83;12.87;;;6.10;99.90;;;;;;4917512;29;20676;-72
2021/12/09 13:12:11;;;;;;;16.40;12.90;;;6.00;99.90;;;;;;4916883;29;20236;-71
2021/12/09 13:15:05;;;;;;;16.50;11.40;;;5.90;99.90;;;;;;4917104;29;20293;-71
2021/12/09 13:17:51;;;;;;;16.23;12.20;;;5.90;99.90;;;;;;4917121;29;20233;-71
2021/12/09 13:20:34;;;;;;;15.00;12.90;;;5.80;99.90;;;;;;4915828;29;20577;-72
2021/12/09 13:23:27;;;;;;;14.87;12.17;;;5.90;99.90;;;;;;4915092;29;20557;-72
2021/12/09 13:26:13;;;;;;;20.50;12.30;;;6.00;99.90;;;;;;4916577;29;20186;-72
2021/12/09 13:29:00;;;;;;;16.97;10.67;;;5.80;99.90;;;;;;4916860;29;20205;-72